RJDT(METAR)
02/01 20:00
METAR RJDT 011100Z 29008KT 200V350 CAVOK 11/M02 Q1017 RMK A3005=
戻る
トップページへ戻る
IMOC Co,.Ltd.